Time;durP1;ratioP1;P1;durP2;ratioP2;P2;SDS_P1;SDS_P2;PMS_P1;PMS_P2;Temp;Humidity;BMP_temperature;BMP_pressure;BME280_temperature;BME280_humidity;BME280_pressure;Samples;Min_cycle;Max_cycle;Signal;HPM_P1;HPM_P2
2021/09/08 00:01:53;;;;;;;9.95;8.95;;;;;;;17.67;63.87;96010.16;5096783;28;20241;-85
2021/09/08 00:04:19;;;;;;;10.18;9.10;;;;;;;17.64;63.70;96004.53;5095841;28;20398;-85
2021/09/08 00:06:45;;;;;;;9.95;9.05;;;;;;;17.64;63.72;96010.59;5078892;28;20229;-86
2021/09/08 00:09:12;;;;;;;9.82;8.93;;;;;;;17.45;64.99;96003.66;5076683;28;20205;-85
2021/09/08 00:11:39;;;;;;;10.30;9.15;;;;;;;17.47;64.90;96001.63;5079813;28;20209;-85
2021/09/08 00:14:05;;;;;;;10.20;8.43;;;;;;;17.57;64.03;95997.56;5080658;28;20205;-85
2021/09/08 00:16:32;;;;;;;9.35;8.40;;;;;;;17.60;63.76;95999.75;5100416;28;20196;-85
2021/09/08 00:18:59;;;;;;;9.68;8.77;;;;;;;17.51;64.35;95995.00;5100384;28;20208;-85
2021/09/08 00:21:29;;;;;;;9.52;8.63;;;;;;;17.51;64.34;96002.81;5098979;28;20212;-86
2021/09/08 00:23:56;;;;;;;9.38;8.57;;;;;;;17.53;64.13;95988.56;5097710;28;20619;-86
2021/09/08 00:26:24;;;;;;;8.68;7.88;;;;;;;17.60;63.52;95991.13;5092228;28;20228;-85
2021/09/08 00:28:50;;;;;;;9.25;8.35;;;;;;;17.52;64.02;95992.16;5077246;28;20208;-85
2021/09/08 00:31:17;;;;;;;8.90;8.10;;;;;;;17.49;63.58;95987.41;5077690;28;20605;-85
2021/09/08 00:33:43;;;;;;;9.25;8.10;;;;;;;17.42;63.83;95984.03;5076651;28;20606;-89
2021/09/08 00:36:11;;;;;;;9.82;8.93;;;;;;;17.37;64.06;95977.84;5075604;28;20212;-87
2021/09/08 00:38:37;;;;;;;8.90;8.10;;;;;;;17.33;64.30;95980.06;5076127;28;20719;-87
2021/09/08 00:41:04;;;;;;;9.15;8.25;;;;;;;17.22;64.13;95978.94;5089712;28;20208;-85
2021/09/08 00:43:30;;;;;;;8.80;7.97;;;;;;;17.14;64.97;95971.34;5096686;28;20540;-85
2021/09/08 00:45:57;;;;;;;9.18;8.30;;;;;;;17.17;64.60;95972.75;5096004;28;20261;-85
2021/09/08 00:48:24;;;;;;;9.27;8.30;;;;;;;17.18;64.57;95967.34;5097409;28;20224;-86
2021/09/08 00:50:51;;;;;;;9.65;8.75;;;;;;;17.11;65.29;95961.38;5097546;28;20200;-86
2021/09/08 00:53:20;;;;;;;10.25;9.25;;;;;;;17.08;64.99;95954.00;5096551;28;20224;-86
2021/09/08 00:55:48;;;;;;;9.23;8.43;;;;;;;17.03;65.14;95951.22;5076324;28;20205;-85
2021/09/08 00:58:14;;;;;;;9.38;8.57;;;;;;;17.05;65.79;95954.41;5096414;28;20244;-85
2021/09/08 01:00:42;;;;;;;9.55;8.63;;;;;;;17.09;64.69;95946.97;5096602;28;20203;-85
2021/09/08 01:03:09;;;;;;;9.70;8.73;;;;;;;17.06;64.82;95947.41;5096240;28;20204;-85
2021/09/08 01:05:35;;;;;;;10.15;9.15;;;;;;;17.04;64.96;95952.00;5095610;28;20226;-85
2021/09/08 01:08:02;;;;;;;10.10;8.35;;;;;;;17.11;64.45;95952.78;5095591;28;20215;-86
2021/09/08 01:10:30;;;;;;;10.77;8.90;;;;;;;17.02;64.60;95954.81;5095496;28;20196;-85
2021/09/08 01:12:57;;;;;;;10.00;9.05;;;;;;;16.85;65.37;95949.28;5095265;28;20707;-85
2021/09/08 01:15:24;;;;;;;9.52;8.63;;;;;;;16.85;65.35;95949.28;5081999;28;20197;-85
2021/09/08 01:17:50;;;;;;;9.57;8.77;;;;;;;16.82;65.64;95941.88;5074840;28;20228;-85
2021/09/08 01:20:17;;;;;;;9.18;8.38;;;;;;;16.76;65.72;95945.31;5075001;28;20197;-85
2021/09/08 01:22:47;;;;;;;9.35;8.43;;;;;;;16.79;65.73;95947.50;5075122;28;20205;-85
2021/09/08 01:25:17;;;;;;;9.73;8.93;;;;;;;16.79;65.19;95944.09;5074443;28;20805;-85
2021/09/08 01:27:44;;;;;;;8.88;7.68;;;;;;;16.79;65.00;95944.91;5074257;28;20248;-85
2021/09/08 01:30:11;;;;;;;10.38;9.35;;;;;;;16.73;65.49;95939.75;5074146;28;20219;-83
2021/09/08 01:32:37;;;;;;;8.75;7.93;;;;;;;16.71;65.27;95939.16;5074696;28;20212;-83
2021/09/08 01:35:05;;;;;;;9.05;8.18;;;;;;;16.70;65.58;95942.75;5074871;28;21021;-83
2021/09/08 01:37:31;;;;;;;9.40;8.50;;;;;;;16.63;65.81;95942.75;5074850;28;20221;-82
2021/09/08 01:39:59;;;;;;;9.07;8.27;;;;;;;16.68;65.58;95939.56;5078214;28;20207;-83
2021/09/08 01:42:25;;;;;;;13.52;8.18;;;;;;;16.62;65.48;95943.72;5095123;28;20443;-83
2021/09/08 01:44:52;;;;;;;8.88;8.05;;;;;;;16.64;65.95;95930.56;5095359;28;20200;-83
2021/09/08 01:47:18;;;;;;;9.30;8.43;;;;;;;16.66;65.42;95936.34;5094606;28;20223;-84
2021/09/08 01:49:45;;;;;;;8.85;7.95;;;;;;;16.60;65.61;95930.13;5094719;28;20204;-82
2021/09/08 01:52:11;;;;;;;9.70;8.88;;;;;;;16.53;66.23;95929.38;5094487;28;20235;-82
2021/09/08 01:54:38;;;;;;;9.20;8.40;;;;;;;16.49;65.90;95926.38;5094065;28;20196;-84
2021/09/08 01:57:05;;;;;;;9.48;8.38;;;;;;;16.54;65.90;95921.38;5098067;28;20220;-82
2021/09/08 01:59:32;;;;;;;10.02;8.38;;;;;;;16.56;65.61;95921.16;5095119;28;20200;-83
2021/09/08 02:01:59;;;;;;;8.75;7.93;;;;;;;16.57;65.21;95920.16;5094023;28;20219;-82
2021/09/08 02:04:25;;;;;;;8.88;8.07;;;;;;;16.53;65.49;95914.56;5093811;28;20239;-83
2021/09/08 02:06:52;;;;;;;10.63;8.15;;;;;;;16.54;65.33;95923.19;5093802;28;20228;-83
2021/09/08 02:09:20;;;;;;;9.25;8.45;;;;;;;16.47;65.88;95923.19;5093105;28;20203;-83
2021/09/08 02:11:47;;;;;;;9.18;8.10;;;;;;;16.42;66.02;95919.59;5093456;28;20752;-85
2021/09/08 02:14:14;;;;;;;9.45;8.55;;;;;;;16.50;65.51;95920.19;5090115;28;20703;-85
2021/09/08 02:16:41;;;;;;;9.23;8.25;;;;;;;16.58;65.20;95922.53;5073683;28;20224;-85
2021/09/08 02:19:08;;;;;;;8.40;7.57;;;;;;;16.57;65.26;95918.34;5073458;28;20204;-85
2021/09/08 02:21:34;;;;;;;9.45;8.55;;;;;;;16.40;65.48;95919.78;5073372;28;20588;-85
2021/09/08 02:24:00;;;;;;;9.23;8.43;;;;;;;16.46;65.47;95913.00;5072266;28;20201;-85
2021/09/08 02:26:27;;;;;;;8.82;7.93;;;;;;;16.48;65.21;95916.19;5073166;28;20220;-85
2021/09/08 02:28:53;;;;;;;8.98;8.07;;;;;;;16.30;65.81;95911.66;5072648;28;20211;-85
2021/09/08 02:31:21;;;;;;;8.85;7.97;;;;;;;16.35;65.17;95911.84;5072781;28;20197;-85
2021/09/08 02:33:48;;;;;;;8.98;8.18;;;;;;;16.30;65.27;95911.66;5072611;28;20204;-85
2021/09/08 02:36:14;;;;;;;9.57;8.68;;;;;;;16.20;65.94;95913.84;5072402;28;20208;-85
2021/09/08 02:38:41;;;;;;;9.18;8.35;;;;;;;16.28;65.54;95915.44;5072553;28;20228;-85
2021/09/08 02:41:08;;;;;;;10.35;9.25;;;;;;;16.28;65.30;95913.66;5085750;28;20196;-85
2021/09/08 02:43:35;;;;;;;9.43;8.52;;;;;;;16.17;65.72;95906.47;5092573;28;20204;-85
2021/09/08 02:46:03;;;;;;;9.13;8.30;;;;;;;16.14;65.96;95914.69;5092397;28;20227;-85
2021/09/08 02:48:31;;;;;;;9.15;8.35;;;;;;;16.05;66.34;95905.50;5094022;28;20273;-85
2021/09/08 02:50:58;;;;;;;8.80;7.90;;;;;;;16.08;65.89;95905.09;5093391;28;20200;-85
2021/09/08 02:53:24;;;;;;;8.98;8.18;;;;;;;16.05;66.22;95902.88;5092502;28;20239;-85
2021/09/08 02:55:50;;;;;;;9.35;8.32;;;;;;;15.98;66.17;95902.09;5092210;28;20204;-85
2021/09/08 02:58:17;;;;;;;8.50;7.70;;;;;;;16.03;66.10;95895.31;5092528;28;20734;-85
2021/09/08 03:00:43;;;;;;;8.88;8.07;;;;;;;16.11;65.76;95892.50;5092616;28;20571;-85
2021/09/08 03:03:10;;;;;;;10.43;7.72;;;;;;;16.18;65.37;95889.88;5091909;28;20610;-84
2021/09/08 03:05:38;;;;;;;8.73;7.93;;;;;;;16.15;65.46;95895.50;5091423;28;20663;-85
2021/09/08 03:08:04;;;;;;;8.52;7.68;;;;;;;16.11;65.95;95894.28;5091882;28;20227;-85
2021/09/08 03:10:33;;;;;;;8.98;8.18;;;;;;;16.14;65.66;95888.69;5092577;28;20211;-85
2021/09/08 03:12:59;;;;;;;8.85;7.95;;;;;;;16.20;65.86;95887.88;5093297;28;20625;-85
2021/09/08 03:15:26;;;;;;;9.68;8.35;;;;;;;16.28;65.25;95885.06;5092302;28;20563;-85
2021/09/08 03:17:52;;;;;;;10.27;8.63;;;;;;;16.28;65.10;95885.06;5092069;28;20219;-85
2021/09/08 03:20:19;;;;;;;10.52;9.40;;;;;;;16.14;65.10;95886.91;5091709;28;20200;-85
2021/09/08 03:22:47;;;;;;;10.70;9.70;;;;;;;16.07;65.14;95888.72;5091859;28;20200;-85
2021/09/08 03:25:13;;;;;;;10.57;9.15;;;;;;;15.99;65.60;95881.13;5091173;28;20204;-85
2021/09/08 03:27:41;;;;;;;10.70;9.50;;;;;;;15.86;66.21;95881.16;5091482;28;20231;-85
2021/09/08 03:30:11;;;;;;;9.70;8.80;;;;;;;15.85;66.24;95877.75;5092807;28;20200;-85
2021/09/08 03:32:38;;;;;;;9.75;8.85;;;;;;;15.83;66.87;95884.94;5093971;28;20562;-84
2021/09/08 03:35:08;;;;;;;9.98;8.98;;;;;;;15.81;66.45;95871.34;5093058;28;20219;-84
2021/09/08 03:37:34;;;;;;;9.60;8.70;;;;;;;15.77;67.11;95875.38;5094034;28;20216;-85
2021/09/08 03:40:03;;;;;;;9.73;8.82;;;;;;;15.71;67.44;95880.56;5092441;28;20197;-86
2021/09/08 03:42:29;;;;;;;10.05;9.13;;;;;;;15.79;67.13;95880.34;5091770;28;20204;-85
2021/09/08 03:44:57;;;;;;;10.18;9.20;;;;;;;15.82;66.89;95882.53;5093797;28;20211;-85
2021/09/08 03:47:24;;;;;;;12.07;8.93;;;;;;;15.91;66.27;95886.53;5095295;28;20654;-85
2021/09/08 03:49:50;;;;;;;9.65;8.75;;;;;;;15.84;65.99;95880.53;5095165;28;20196;-85
2021/09/08 03:52:17;;;;;;;10.50;9.40;;;;;;;15.72;66.81;95880.38;5107183;27;20245;-85
2021/09/08 03:54:44;;;;;;;10.02;9.13;;;;;;;15.61;66.94;95872.38;5125613;27;20199;-84
2021/09/08 03:57:12;;;;;;;9.27;8.48;;;;;;;15.53;67.66;95874.16;5116674;28;20632;-84
2021/09/08 03:59:39;;;;;;;9.13;8.33;;;;;;;15.63;66.72;95881.56;5115842;28;20203;-84
2021/09/08 04:02:06;;;;;;;8.70;7.90;;;;;;;15.56;67.87;95874.78;5115595;28;20752;-84
2021/09/08 04:04:32;;;;;;;9.25;8.35;;;;;;;15.61;67.48;95878.34;5114836;28;20289;-84
2021/09/08 04:06:59;;;;;;;9.50;8.52;;;;;;;15.60;67.74;95876.75;5115407;28;20234;-84
2021/09/08 04:09:25;;;;;;;9.70;8.80;;;;;;;15.66;66.97;95872.56;5115104;28;20219;-84
2021/09/08 04:11:52;;;;;;;9.43;8.53;;;;;;;15.69;66.92;95872.97;5116132;28;20207;-84
2021/09/08 04:14:19;;;;;;;9.40;8.53;;;;;;;15.59;67.02;95871.78;5112787;28;20192;-84
2021/09/08 04:16:46;;;;;;;9.17;8.27;;;;;;;15.61;66.89;95870.56;5098763;28;20216;-84
2021/09/08 04:19:12;;;;;;;9.57;8.43;;;;;;;15.63;66.83;95870.38;5116583;28;20199;-84
2021/09/08 04:21:39;;;;;;;9.32;8.45;;;;;;;15.67;66.77;95868.97;5116378;28;20227;-84
2021/09/08 04:24:06;;;;;;;9.45;8.55;;;;;;;15.63;66.94;95860.78;5114952;28;20791;-84
2021/09/08 04:26:32;;;;;;;9.25;8.43;;;;;;;15.56;66.73;95862.59;5108341;28;20228;-84
2021/09/08 04:28:58;;;;;;;9.82;8.82;;;;;;;15.48;67.34;95867.97;5095057;28;20231;-84
2021/09/08 04:31:26;;;;;;;9.52;8.57;;;;;;;15.44;67.40;95870.16;5095132;28;20204;-84
2021/09/08 04:33:53;;;;;;;10.10;8.20;;;;;;;15.50;67.69;95861.56;5094545;28;20196;-84
2021/09/08 04:36:19;;;;;;;9.15;8.35;;;;;;;15.42;67.68;95859.16;5096099;28;20204;-84
2021/09/08 04:38:46;;;;;;;9.07;8.27;;;;;;;15.41;67.26;95865.34;5095812;28;20228;-85
2021/09/08 04:41:13;;;;;;;9.82;8.93;;;;;;;15.45;67.35;95860.56;5100803;28;20212;-85
2021/09/08 04:43:39;;;;;;;9.10;8.30;;;;;;;15.35;67.92;95866.16;5112630;28;20263;-84
2021/09/08 04:46:06;;;;;;;8.82;8.02;;;;;;;15.28;68.54;95861.97;5111798;28;20206;-84
2021/09/08 04:48:34;;;;;;;9.75;8.85;;;;;;;15.23;69.20;95864.34;5114208;28;20231;-84
2021/09/08 04:51:00;;;;;;;9.38;8.48;;;;;;;15.25;69.12;95864.94;5114870;28;20206;-85
2021/09/08 04:53:27;;;;;;;10.15;9.18;;;;;;;15.32;68.95;95869.16;5114089;27;20227;-84
2021/09/08 04:55:53;;;;;;;10.20;9.13;;;;;;;15.25;68.68;95863.16;5109345;28;20282;-84
2021/09/08 04:58:19;;;;;;;10.05;8.93;;;;;;;15.27;68.61;95863.75;5104792;28;20218;-84
2021/09/08 05:00:46;;;;;;;9.40;8.50;;;;;;;15.32;68.61;95869.16;5100747;28;20196;-84
2021/09/08 05:03:12;;;;;;;9.68;8.77;;;;;;;15.37;68.51;95865.97;5095067;28;20532;-85
2021/09/08 05:05:40;;;;;;;10.57;8.80;;;;;;;15.36;68.25;95870.38;5093736;28;20208;-85
2021/09/08 05:08:06;;;;;;;10.43;9.43;;;;;;;15.38;68.71;95872.75;5099104;28;20224;-85
2021/09/08 05:10:33;;;;;;;12.00;9.10;;;;;;;15.32;68.56;95871.75;5096143;28;20196;-85
2021/09/08 05:12:59;;;;;;;9.97;9.00;;;;;;;15.44;68.38;95877.13;5097428;28;20204;-87
2021/09/08 05:15:26;;;;;;;9.63;8.73;;;;;;;15.44;68.12;95872.75;5109489;27;20567;-83
2021/09/08 05:17:52;;;;;;;10.40;9.30;;;;;;;15.47;68.53;95874.16;5131028;27;20222;-83
2021/09/08 05:20:19;;;;;;;10.77;9.05;;;;;;;15.58;68.24;95873.59;5133052;27;20191;-82
2021/09/08 05:22:47;;;;;;;11.07;9.15;;;;;;;15.73;67.92;95875.97;5115092;28;20598;-82
2021/09/08 05:25:16;;;;;;;11.23;8.93;;;;;;;15.77;67.78;95870.19;5099509;28;20196;-82
2021/09/08 05:27:42;;;;;;;9.55;8.70;;;;;;;15.68;68.61;95881.75;5092719;28;20726;-82
2021/09/08 05:30:09;;;;;;;10.73;9.40;;;;;;;15.71;68.11;95877.97;5092524;28;20201;-83
2021/09/08 05:32:36;;;;;;;10.25;9.25;;;;;;;15.75;68.33;95873.97;5093190;28;20273;-83
2021/09/08 05:35:02;;;;;;;11.00;9.52;;;;;;;15.68;68.82;95879.16;5094434;28;20203;-82
2021/09/08 05:37:29;;;;;;;10.10;9.10;;;;;;;15.70;69.77;95874.56;5094317;28;20224;-82
2021/09/08 05:39:56;;;;;;;10.27;9.10;;;;;;;15.80;68.97;95880.13;5099488;28;20203;-84
2021/09/08 05:42:23;;;;;;;11.15;9.23;;;;;;;15.96;68.37;95884.13;5113734;28;20213;-85
2021/09/08 05:44:49;;;;;;;35.53;31.90;;;;;;;16.12;68.29;95885.50;5114628;28;20203;-84
2021/09/08 05:47:16;;;;;;;17.95;14.50;;;;;;;16.02;71.02;95880.72;5115393;28;20219;-85
2021/09/08 05:49:43;;;;;;;12.80;11.68;;;;;;;15.94;70.92;95880.16;5114094;28;20203;-85
2021/09/08 05:52:09;;;;;;;14.13;12.15;;;;;;;15.85;71.40;95876.94;5108534;28;20223;-84
2021/09/08 05:54:35;;;;;;;12.60;11.25;;;;;;;15.83;73.00;95876.34;5092808;28;20203;-85
2021/09/08 05:57:05;;;;;;;12.27;11.13;;;;;;;16.06;71.50;95876.72;5084135;28;20228;-84
2021/09/08 05:59:31;;;;;;;12.70;11.23;;;;;;;16.24;70.45;95876.88;5091323;28;20227;-84
2021/09/08 06:01:58;;;;;;;11.73;10.52;;;;;;;16.21;71.21;95872.06;5093092;28;20208;-84
2021/09/08 06:04:24;;;;;;;14.02;11.30;;;;;;;16.28;71.47;95873.88;5093693;28;20204;-84
2021/09/08 06:06:52;;;;;;;12.57;11.35;;;;;;;16.38;70.14;95874.22;5093029;28;20598;-86
2021/09/08 06:09:18;;;;;;;12.63;10.88;;;;;;;16.38;70.24;95864.63;5094575;28;20554;-85
2021/09/08 06:11:44;;;;;;;12.30;10.95;;;;;;;16.34;70.58;95871.25;5092181;28;20222;-86
2021/09/08 06:14:13;;;;;;;12.48;10.80;;;;;;;16.43;70.20;95864.00;5091696;28;20208;-86
2021/09/08 06:16:39;;;;;;;13.27;11.75;;;;;;;16.51;69.96;95863.78;5091787;28;20196;-84
2021/09/08 06:19:06;;;;;;;12.95;11.65;;;;;;;16.52;69.50;95857.59;5092279;28;20203;-85
2021/09/08 06:21:32;;;;;;;13.98;11.30;;;;;;;16.63;69.71;95864.75;5091622;28;20604;-85
2021/09/08 06:23:59;;;;;;;11.93;10.75;;;;;;;16.70;69.01;95862.94;5091385;28;20208;-85
2021/09/08 06:26:25;;;;;;;11.90;10.80;;;;;;;16.81;69.16;95869.28;5091473;28;20207;-85
2021/09/08 06:28:53;;;;;;;12.30;11.10;;;;;;;16.91;69.14;95856.63;5092405;28;20288;-85
2021/09/08 06:31:21;;;;;;;13.38;11.93;;;;;;;16.93;69.43;95855.38;5092031;28;20195;-84
2021/09/08 06:33:48;;;;;;;12.48;11.27;;;;;;;17.00;69.38;95850.16;5091761;28;20196;-84
2021/09/08 06:36:14;;;;;;;14.40;10.68;;;;;;;17.21;68.67;95854.22;5090732;28;20192;-85
2021/09/08 06:38:41;;;;;;;12.32;11.02;;;;;;;17.28;67.59;95855.00;5092093;28;20265;-85
2021/09/08 06:41:07;;;;;;;12.15;10.50;;;;;;;17.36;67.88;95857.31;5091787;28;20670;-85
2021/09/08 06:43:34;;;;;;;11.85;10.75;;;;;;;17.41;67.46;95854.88;5093271;28;20254;-84
2021/09/08 06:46:00;;;;;;;19.20;17.17;;;;;;;17.42;67.18;95853.88;5092916;28;20204;-84
2021/09/08 06:48:28;;;;;;;13.15;11.85;;;;;;;17.52;66.15;95841.16;5093378;28;20695;-82
2021/09/08 06:50:54;;;;;;;12.88;11.48;;;;;;;17.67;66.88;95840.88;5092729;28;20369;-83
2021/09/08 06:53:21;;;;;;;11.45;10.43;;;;;;;17.78;66.56;95849.78;5093290;28;20200;-82
2021/09/08 06:55:47;;;;;;;12.25;10.77;;;;;;;17.94;65.92;95842.22;5091658;28;20693;-82
2021/09/08 06:58:13;;;;;;;11.63;10.02;;;;;;;18.05;65.28;95840.72;5091490;28;20723;-82
2021/09/08 07:00:40;;;;;;;16.48;14.75;;;;;;;17.97;65.05;95835.78;5085996;28;20189;-82
2021/09/08 07:03:07;;;;;;;14.90;13.40;;;;;;;18.09;64.71;95841.09;5071780;28;20261;-82
2021/09/08 07:05:35;;;;;;;11.20;10.10;;;;;;;18.24;63.77;95839.69;5090443;28;20208;-82
2021/09/08 07:08:05;;;;;;;11.10;9.90;;;;;;;18.35;63.37;95835.56;5092002;28;20224;-82
2021/09/08 07:10:31;;;;;;;11.45;10.40;;;;;;;18.54;63.76;95838.94;5092472;28;20207;-85
2021/09/08 07:12:58;;;;;;;12.88;10.38;;;;;;;18.74;62.45;95830.88;5091651;28;20228;-84
2021/09/08 07:15:24;;;;;;;10.77;9.68;;;;;;;18.80;63.00;95838.63;5088974;28;20212;-85
2021/09/08 07:17:51;;;;;;;10.90;9.63;;;;;;;18.97;62.70;95825.75;5080809;28;20265;-86
2021/09/08 07:20:20;;;;;;;10.45;9.38;;;;;;;19.07;61.48;95822.59;5099515;28;20196;-85
2021/09/08 07:22:48;;;;;;;11.27;10.25;;;;;;;19.06;60.98;95815.78;5098447;28;20195;-85
2021/09/08 07:25:20;;;;;;;10.13;9.07;;;;;;;19.14;60.50;95825.91;5100272;28;20539;-85
2021/09/08 07:27:46;;;;;;;10.35;9.43;;;;;;;19.10;60.57;95825.56;5096902;28;20224;-85
2021/09/08 07:30:13;;;;;;;10.93;9.90;;;;;;;19.18;60.87;95824.44;5100450;28;20200;-85
2021/09/08 07:32:46;;;;;;;10.25;9.25;;;;;;;19.39;59.99;95817.91;5101806;28;20613;-85
2021/09/08 07:35:12;;;;;;;10.90;9.73;;;;;;;19.49;60.77;95816.31;5100937;28;20196;-86
2021/09/08 07:37:40;;;;;;;11.07;9.20;;;;;;;19.73;60.24;95819.75;5098494;28;20954;-88
2021/09/08 07:40:10;;;;;;;11.80;9.32;;;;;;;19.71;59.56;95824.41;5098806;28;20216;-87
2021/09/08 07:42:36;;;;;;;10.50;9.48;;;;;;;19.61;60.16;95819.78;5097304;28;20208;-85
2021/09/08 07:45:18;;;;;;;9.82;8.82;;;;;;;19.85;60.05;95817.91;5083304;28;20215;-87
2021/09/08 07:47:46;;;;;;;9.77;8.77;;;;;;;20.11;59.17;95826.31;5077332;28;20223;-86
2021/09/08 07:50:17;;;;;;;9.20;8.35;;;;;;;20.41;59.15;95828.75;5095145;28;20200;-86
2021/09/08 07:52:49;;;;;;;9.68;8.70;;;;;;;20.65;57.63;95819.81;5098200;28;20584;-86
2021/09/08 07:55:17;;;;;;;9.82;8.80;;;;;;;20.84;56.30;95828.28;5096382;28;20204;-85
2021/09/08 07:57:44;;;;;;;9.85;8.95;;;;;;;20.91;56.41;95821.09;5096836;28;20228;-87
2021/09/08 08:00:11;;;;;;;10.07;9.18;;;;;;;21.11;56.04;95825.88;5094937;28;20269;-88
2021/09/08 08:02:45;;;;;;;9.68;8.80;;;;;;;21.06;55.66;95823.97;5079361;28;20248;-86
2021/09/08 08:05:14;;;;;;;9.63;8.63;;;;;;;21.11;55.43;95824.06;5096944;28;20200;-84
2021/09/08 08:07:43;;;;;;;9.93;8.93;;;;;;;21.14;54.96;95823.59;5098928;28;20232;-85
2021/09/08 08:10:10;;;;;;;9.18;8.30;;;;;;;21.20;55.49;95812.19;5097944;28;20242;-85
2021/09/08 08:12:38;;;;;;;9.18;8.25;;;;;;;21.31;54.43;95815.78;5095041;28;20239;-86
2021/09/08 08:15:07;;;;;;;9.10;8.23;;;;;;;21.31;54.72;95813.16;5088100;28;20204;-85
2021/09/08 08:17:34;;;;;;;9.65;8.73;;;;;;;21.53;55.09;95805.38;5076991;28;20221;-85
2021/09/08 08:20:00;;;;;;;11.23;8.40;;;;;;;21.92;54.38;95804.34;5075629;28;20205;-85
2021/09/08 08:22:27;;;;;;;8.95;7.97;;;;;;;22.36;53.45;95807.00;5076906;28;20235;-85
2021/09/08 08:24:55;;;;;;;9.23;8.30;;;;;;;22.61;53.24;95807.31;5074296;28;20204;-86
2021/09/08 08:27:21;;;;;;;11.10;7.95;;;;;;;22.85;52.57;95807.06;5075878;28;20290;-86
2021/09/08 08:29:49;;;;;;;9.88;8.95;;;;;;;22.94;51.41;95800.31;5080281;28;20192;-87
2021/09/08 08:32:15;;;;;;;9.57;8.40;;;;;;;22.89;51.38;95805.53;5097183;28;20365;-86
2021/09/08 08:34:42;;;;;;;10.05;8.55;;;;;;;22.95;51.05;95804.50;5098627;28;20188;-86
2021/09/08 08:37:08;;;;;;;9.73;8.82;;;;;;;22.87;51.48;95813.66;5095879;28;20285;-85
2021/09/08 08:39:38;;;;;;;10.70;8.75;;;;;;;23.14;51.19;95803.09;5096573;28;20198;-86
2021/09/08 08:42:05;;;;;;;9.30;8.45;;;;;;;23.22;50.74;95812.38;5096265;28;20210;-86
2021/09/08 08:44:41;;;;;;;9.52;8.63;;;;;;;23.33;50.15;95804.31;5089328;28;20200;-86
2021/09/08 08:47:11;;;;;;;9.35;8.55;;;;;;;23.39;50.64;95803.31;5078577;28;20216;-86
2021/09/08 08:49:38;;;;;;;9.23;8.30;;;;;;;23.63;51.09;95798.53;5094304;28;20264;-85
2021/09/08 08:52:07;;;;;;;9.07;8.15;;;;;;;23.57;50.92;95801.38;5092274;28;20204;-85
2021/09/08 08:54:36;;;;;;;9.32;8.35;;;;;;;23.85;49.86;95795.78;5092743;28;20219;-85
2021/09/08 08:57:10;;;;;;;10.00;8.93;;;;;;;23.90;49.01;95790.53;5096019;28;20219;-86
2021/09/08 08:59:44;;;;;;;9.38;8.00;;;;;;;24.04;49.66;95790.88;5093269;28;20192;-85
2021/09/08 09:02:27;;;;;;;8.43;7.72;;;;;;;24.34;48.74;95795.50;5092824;28;20273;-85
2021/09/08 09:04:55;;;;;;;8.65;7.82;;;;;;;24.46;48.70;95793.44;5092507;28;20735;-85
2021/09/08 09:07:23;;;;;;;9.30;8.40;;;;;;;24.53;49.21;95794.00;5095493;28;20220;-85
2021/09/08 09:09:55;;;;;;;9.75;8.75;;;;;;;24.68;48.37;95795.84;5093276;28;20266;-85
2021/09/08 09:12:32;;;;;;;9.15;8.30;;;;;;;24.52;48.72;95794.25;5093429;28;20200;-85
2021/09/08 09:15:00;;;;;;;9.27;8.38;;;;;;;24.21;48.43;95788.84;5085243;28;20208;-86
2021/09/08 09:17:31;;;;;;;9.57;8.68;;;;;;;24.14;49.71;95787.50;5075106;28;20692;-86
2021/09/08 09:19:58;;;;;;;9.98;8.45;;;;;;;24.10;49.37;95784.56;5075497;28;20855;-87
2021/09/08 09:22:55;;;;;;;9.05;8.23;;;;;;;24.29;48.97;95782.31;5074652;28;20205;-85
2021/09/08 09:25:27;;;;;;;8.88;7.97;;;;;;;24.65;48.72;95785.84;5077057;28;20193;-85
2021/09/08 09:27:57;;;;;;;9.40;8.50;;;;;;;24.67;48.09;95783.75;5080267;28;20709;-83
2021/09/08 09:30:25;;;;;;;10.40;8.77;;;;;;;24.64;48.00;95786.88;5075339;28;20197;-83
2021/09/08 09:32:55;;;;;;;9.05;7.93;;;;;;;24.74;47.64;95784.28;5072357;28;20204;-84
2021/09/08 09:35:24;;;;;;;8.90;8.10;;;;;;;24.52;48.28;95779.22;5086480;28;20192;-83
2021/09/08 09:37:54;;;;;;;9.15;8.20;;;;;;;24.57;48.90;95779.25;5094026;28;20211;-83
2021/09/08 09:40:24;;;;;;;8.90;8.00;;;;;;;24.94;49.10;95773.81;5094536;28;20234;-83
2021/09/08 09:42:51;;;;;;;8.23;7.53;;;;;;;25.28;48.70;95771.44;5094632;28;20204;-82
2021/09/08 09:45:20;;;;;;;10.82;7.82;;;;;;;25.42;47.34;95764.56;5080463;28;20216;-82
2021/09/08 09:47:50;;;;;;;8.50;7.75;;;;;;;25.33;48.02;95763.53;5075158;28;20233;-83
2021/09/08 09:50:23;;;;;;;7.90;7.10;;;;;;;25.21;47.24;95756.97;5085869;28;20204;-82
2021/09/08 09:52:52;;;;;;;9.13;8.23;;;;;;;25.03;46.45;95763.53;5093142;28;20837;-83
2021/09/08 09:55:19;;;;;;;8.15;7.40;;;;;;;25.19;47.69;95754.59;5092415;28;20245;-83
2021/09/08 09:57:45;;;;;;;9.10;8.20;;;;;;;25.21;46.39;95747.19;5092857;28;20216;-83
2021/09/08 10:00:17;;;;;;;10.68;7.90;;;;;;;25.29;47.01;95746.69;5093345;28;20196;-83
2021/09/08 10:02:45;;;;;;;8.57;7.10;;;;;;;24.90;46.02;95753.50;5094077;28;20262;-83
2021/09/08 10:05:13;;;;;;;7.78;6.97;;;;;;;24.97;47.03;95744.31;5097834;28;20222;-85
2021/09/08 10:07:41;;;;;;;8.20;6.80;;;;;;;24.96;47.70;95742.75;5098770;28;20220;-87
2021/09/08 10:10:13;;;;;;;9.93;7.53;;;;;;;25.01;47.60;95744.59;5097480;28;20707;-85
2021/09/08 10:12:44;;;;;;;7.72;6.70;;;;;;;25.17;47.51;95740.09;5098540;28;20208;-85
2021/09/08 10:15:15;;;;;;;7.18;6.57;;;;;;;25.22;46.99;95734.81;5098235;28;20197;-86
2021/09/08 10:17:43;;;;;;;7.65;6.80;;;;;;;25.21;46.72;95727.97;5091541;28;20220;-85
2021/09/08 10:20:12;;;;;;;7.18;6.55;;;;;;;25.20;46.40;95736.94;5082140;28;20200;-83
2021/09/08 10:22:43;;;;;;;7.82;7.13;;;;;;;25.15;46.42;95729.81;5080006;28;20258;-84
2021/09/08 10:25:11;;;;;;;7.20;6.50;;;;;;;25.17;47.23;95726.94;5097737;28;20823;-84
2021/09/08 10:27:39;;;;;;;7.32;6.72;;;;;;;25.13;47.67;95722.19;5093074;28;20650;-83
2021/09/08 10:30:06;;;;;;;7.60;6.85;;;;;;;24.99;47.46;95722.97;5099157;28;20235;-83
2021/09/08 10:32:33;;;;;;;7.88;7.15;;;;;;;25.01;47.65;95718.25;5096506;28;20208;-83
2021/09/08 10:35:09;;;;;;;7.25;6.65;;;;;;;25.20;47.50;95714.00;5093962;28;20249;-83
2021/09/08 10:37:37;;;;;;;7.90;7.10;;;;;;;25.21;46.64;95707.66;5097812;28;20710;-83
2021/09/08 10:40:07;;;;;;;9.00;6.85;;;;;;;25.19;46.78;95714.28;5098650;28;20253;-83
2021/09/08 10:42:47;;;;;;;7.45;6.75;;;;;;;25.19;46.72;95706.38;5091661;28;20221;-83
2021/09/08 10:45:17;;;;;;;7.18;6.57;;;;;;;25.35;46.86;95700.03;5098417;28;20204;-84
2021/09/08 10:47:44;;;;;;;7.13;6.50;;;;;;;25.28;46.26;95710.03;5099223;28;20250;-85
2021/09/08 10:50:10;;;;;;;7.28;6.57;;;;;;;25.28;47.28;95694.22;5097911;28;20794;-86
2021/09/08 10:52:43;;;;;;;7.50;6.65;;;;;;;25.33;47.25;95699.50;5089354;28;20698;-86
2021/09/08 10:55:20;;;;;;;7.22;6.45;;;;;;;25.17;46.89;95701.38;5095319;28;20230;-85
2021/09/08 10:57:59;;;;;;;6.97;6.45;;;;;;;25.29;48.06;95693.16;5096115;28;20414;-85
2021/09/08 11:00:35;;;;;;;7.63;6.53;;;;;;;25.54;48.56;95694.97;5097513;28;20196;-85
2021/09/08 11:03:02;;;;;;;7.80;7.10;;;;;;;25.59;47.34;95687.84;5098524;28;20206;-85
2021/09/08 11:05:29;;;;;;;10.20;6.60;;;;;;;25.59;47.49;95685.19;5090328;28;20200;-85
2021/09/08 11:07:56;;;;;;;7.25;6.65;;;;;;;25.62;47.83;95681.22;5096421;28;20706;-85
2021/09/08 11:10:32;;;;;;;7.70;6.90;;;;;;;25.60;47.06;95683.31;5090259;28;20220;-86
2021/09/08 11:13:00;;;;;;;7.47;6.78;;;;;;;25.68;46.57;95688.88;5090169;28;20196;-85
2021/09/08 11:15:31;;;;;;;6.82;6.20;;;;;;;25.77;47.24;95683.84;5094943;28;20196;-85
2021/09/08 11:17:58;;;;;;;7.95;6.97;;;;;;;25.60;46.90;95678.06;5092043;28;20212;-85
2021/09/08 11:20:24;;;;;;;7.35;6.68;;;;;;;25.52;46.56;95673.34;5088035;28;20267;-86
2021/09/08 11:23:05;;;;;;;7.30;6.70;;;;;;;25.37;46.34;95682.88;5090195;28;20903;-86
2021/09/08 11:25:35;;;;;;;7.70;7.00;;;;;;;25.36;47.70;95681.31;5092220;28;20200;-85
2021/09/08 11:28:02;;;;;;;7.03;6.43;;;;;;;25.45;48.56;95669.13;5089570;28;20679;-85
2021/09/08 11:30:31;;;;;;;7.65;6.55;;;;;;;25.51;47.41;95669.91;5085576;28;20222;-85
2021/09/08 11:32:59;;;;;;;7.38;6.70;;;;;;;25.65;47.81;95667.53;5085300;28;20224;-86